sensor_id;sensor_type;location;lat;lon;timestamp;P1;durP1;ratioP1;P2;durP2;ratioP2
23080;SDS011;11708;50.570;8.532;2023-04-25T00:02:13;10.85;;;7.60;;
23080;SDS011;11708;50.570;8.532;2023-04-25T00:04:39;13.45;;;6.70;;
23080;SDS011;11708;50.570;8.532;2023-04-25T00:07:05;11.23;;;7.07;;
23080;SDS011;11708;50.570;8.532;2023-04-25T00:09:31;11.65;;;7.35;;
23080;SDS011;11708;50.570;8.532;2023-04-25T00:11:58;14.27;;;7.15;;
23080;SDS011;11708;50.570;8.532;2023-04-25T00:14:24;12.23;;;7.55;;
23080;SDS011;11708;50.570;8.532;2023-04-25T00:16:50;12.27;;;6.80;;
23080;SDS011;11708;50.570;8.532;2023-04-25T00:19:16;10.00;;;6.00;;
23080;SDS011;11708;50.570;8.532;2023-04-25T00:21:42;11.27;;;5.60;;
23080;SDS011;11708;50.570;8.532;2023-04-25T00:24:11;9.77;;;5.50;;
23080;SDS011;11708;50.570;8.532;2023-04-25T00:26:37;9.05;;;5.70;;
23080;SDS011;11708;50.570;8.532;2023-04-25T00:29:02;10.15;;;5.53;;
23080;SDS011;11708;50.570;8.532;2023-04-25T00:31:28;10.23;;;6.00;;
23080;SDS011;11708;50.570;8.532;2023-04-25T00:33:54;10.13;;;5.78;;
23080;SDS011;11708;50.570;8.532;2023-04-25T00:36:20;8.75;;;4.80;;
23080;SDS011;11708;50.570;8.532;2023-04-25T00:38:45;13.05;;;5.63;;
23080;SDS011;11708;50.570;8.532;2023-04-25T00:41:11;8.20;;;5.45;;
23080;SDS011;11708;50.570;8.532;2023-04-25T00:43:37;10.95;;;5.68;;
23080;SDS011;11708;50.570;8.532;2023-04-25T00:46:03;10.90;;;5.80;;
23080;SDS011;11708;50.570;8.532;2023-04-25T00:48:29;8.75;;;5.53;;
23080;SDS011;11708;50.570;8.532;2023-04-25T00:50:56;6.47;;;5.05;;
23080;SDS011;11708;50.570;8.532;2023-04-25T00:53:23;10.45;;;4.47;;
23080;SDS011;11708;50.570;8.532;2023-04-25T00:55:50;7.30;;;3.92;;
23080;SDS011;11708;50.570;8.532;2023-04-25T00:58:17;7.72;;;3.88;;
23080;SDS011;11708;50.570;8.532;2023-04-25T01:00:43;7.50;;;3.30;;
23080;SDS011;11708;50.570;8.532;2023-04-25T01:03:13;7.75;;;3.35;;
23080;SDS011;11708;50.570;8.532;2023-04-25T01:05:41;8.07;;;3.97;;
23080;SDS011;11708;50.570;8.532;2023-04-25T01:08:07;6.55;;;3.03;;
23080;SDS011;11708;50.570;8.532;2023-04-25T01:10:33;9.00;;;3.20;;
23080;SDS011;11708;50.570;8.532;2023-04-25T01:12:58;7.30;;;3.40;;
23080;SDS011;11708;50.570;8.532;2023-04-25T01:15:24;9.75;;;3.75;;
23080;SDS011;11708;50.570;8.532;2023-04-25T01:17:50;9.05;;;3.80;;
23080;SDS011;11708;50.570;8.532;2023-04-25T01:20:15;7.10;;;3.67;;
23080;SDS011;11708;50.570;8.532;2023-04-25T01:22:42;7.97;;;3.45;;
23080;SDS011;11708;50.570;8.532;2023-04-25T01:25:08;7.35;;;3.33;;
23080;SDS011;11708;50.570;8.532;2023-04-25T01:27:35;7.70;;;3.58;;
23080;SDS011;11708;50.570;8.532;2023-04-25T01:30:01;10.38;;;3.75;;
23080;SDS011;11708;50.570;8.532;2023-04-25T01:32:28;5.57;;;3.03;;
23080;SDS011;11708;50.570;8.532;2023-04-25T01:35:02;7.45;;;3.25;;
23080;SDS011;11708;50.570;8.532;2023-04-25T01:37:38;7.05;;;3.35;;
23080;SDS011;11708;50.570;8.532;2023-04-25T01:40:04;7.00;;;3.75;;
23080;SDS011;11708;50.570;8.532;2023-04-25T01:42:32;7.20;;;3.10;;
23080;SDS011;11708;50.570;8.532;2023-04-25T01:44:58;6.97;;;3.72;;
23080;SDS011;11708;50.570;8.532;2023-04-25T01:47:23;6.45;;;3.20;;
23080;SDS011;11708;50.570;8.532;2023-04-25T01:49:49;8.00;;;3.55;;
23080;SDS011;11708;50.570;8.532;2023-04-25T01:52:14;11.77;;;4.22;;
23080;SDS011;11708;50.570;8.532;2023-04-25T01:54:40;9.45;;;3.22;;
23080;SDS011;11708;50.570;8.532;2023-04-25T01:57:09;5.75;;;3.30;;
23080;SDS011;11708;50.570;8.532;2023-04-25T01:59:35;9.50;;;3.80;;
23080;SDS011;11708;50.570;8.532;2023-04-25T02:02:01;7.28;;;3.90;;
23080;SDS011;11708;50.570;8.532;2023-04-25T02:04:28;9.70;;;3.88;;
23080;SDS011;11708;50.570;8.532;2023-04-25T02:06:54;9.80;;;3.15;;
23080;SDS011;11708;50.570;8.532;2023-04-25T02:09:20;7.88;;;4.22;;
23080;SDS011;11708;50.570;8.532;2023-04-25T02:11:46;7.15;;;4.13;;
23080;SDS011;11708;50.570;8.532;2023-04-25T02:14:11;9.75;;;3.92;;
23080;SDS011;11708;50.570;8.532;2023-04-25T02:16:37;10.27;;;4.53;;
23080;SDS011;11708;50.570;8.532;2023-04-25T02:19:03;6.75;;;4.00;;
23080;SDS011;11708;50.570;8.532;2023-04-25T02:21:29;11.63;;;4.82;;
23080;SDS011;11708;50.570;8.532;2023-04-25T02:23:55;11.73;;;4.25;;
23080;SDS011;11708;50.570;8.532;2023-04-25T02:26:21;10.93;;;4.38;;
23080;SDS011;11708;50.570;8.532;2023-04-25T02:28:48;10.77;;;4.30;;
23080;SDS011;11708;50.570;8.532;2023-04-25T02:31:14;9.00;;;4.25;;
23080;SDS011;11708;50.570;8.532;2023-04-25T02:33:40;12.02;;;4.43;;
23080;SDS011;11708;50.570;8.532;2023-04-25T02:36:06;11.20;;;4.68;;
23080;SDS011;11708;50.570;8.532;2023-04-25T02:38:32;8.80;;;4.65;;
23080;SDS011;11708;50.570;8.532;2023-04-25T02:40:57;13.25;;;4.78;;
23080;SDS011;11708;50.570;8.532;2023-04-25T02:43:23;14.57;;;5.75;;
23080;SDS011;11708;50.570;8.532;2023-04-25T02:45:48;11.27;;;5.20;;
23080;SDS011;11708;50.570;8.532;2023-04-25T02:48:14;11.32;;;5.65;;
23080;SDS011;11708;50.570;8.532;2023-04-25T02:50:39;9.85;;;4.40;;
23080;SDS011;11708;50.570;8.532;2023-04-25T02:53:05;12.70;;;5.43;;
23080;SDS011;11708;50.570;8.532;2023-04-25T02:55:30;10.38;;;5.10;;
23080;SDS011;11708;50.570;8.532;2023-04-25T02:57:56;14.57;;;5.10;;
23080;SDS011;11708;50.570;8.532;2023-04-25T03:00:22;10.60;;;4.75;;
23080;SDS011;11708;50.570;8.532;2023-04-25T03:02:47;12.77;;;5.25;;
23080;SDS011;11708;50.570;8.532;2023-04-25T03:05:13;7.95;;;4.85;;
23080;SDS011;11708;50.570;8.532;2023-04-25T03:07:38;11.30;;;4.90;;
23080;SDS011;11708;50.570;8.532;2023-04-25T03:10:05;8.48;;;4.65;;
23080;SDS011;11708;50.570;8.532;2023-04-25T03:12:31;13.30;;;4.60;;
23080;SDS011;11708;50.570;8.532;2023-04-25T03:14:57;11.02;;;4.45;;
23080;SDS011;11708;50.570;8.532;2023-04-25T03:17:23;13.40;;;5.47;;
23080;SDS011;11708;50.570;8.532;2023-04-25T03:19:48;13.10;;;4.47;;
23080;SDS011;11708;50.570;8.532;2023-04-25T03:22:14;9.70;;;4.57;;
23080;SDS011;11708;50.570;8.532;2023-04-25T03:24:39;12.13;;;4.88;;
23080;SDS011;11708;50.570;8.532;2023-04-25T03:27:05;8.05;;;4.40;;
23080;SDS011;11708;50.570;8.532;2023-04-25T03:29:30;8.77;;;4.32;;
23080;SDS011;11708;50.570;8.532;2023-04-25T03:31:56;6.57;;;3.92;;
23080;SDS011;11708;50.570;8.532;2023-04-25T03:34:22;8.32;;;4.20;;
23080;SDS011;11708;50.570;8.532;2023-04-25T03:36:48;7.68;;;4.25;;
23080;SDS011;11708;50.570;8.532;2023-04-25T03:39:14;9.30;;;4.32;;
23080;SDS011;11708;50.570;8.532;2023-04-25T03:41:39;12.38;;;4.90;;
23080;SDS011;11708;50.570;8.532;2023-04-25T03:44:05;8.32;;;4.03;;
23080;SDS011;11708;50.570;8.532;2023-04-25T03:46:30;10.20;;;4.07;;
23080;SDS011;11708;50.570;8.532;2023-04-25T03:48:56;8.32;;;3.92;;
23080;SDS011;11708;50.570;8.532;2023-04-25T03:51:21;7.68;;;3.75;;
23080;SDS011;11708;50.570;8.532;2023-04-25T03:53:47;9.38;;;4.30;;
23080;SDS011;11708;50.570;8.532;2023-04-25T03:56:13;8.95;;;4.32;;
23080;SDS011;11708;50.570;8.532;2023-04-25T03:58:38;10.02;;;4.07;;
23080;SDS011;11708;50.570;8.532;2023-04-25T04:01:04;7.03;;;3.80;;
23080;SDS011;11708;50.570;8.532;2023-04-25T04:03:32;5.43;;;3.20;;
23080;SDS011;11708;50.570;8.532;2023-04-25T04:06:00;6.72;;;3.45;;
23080;SDS011;11708;50.570;8.532;2023-04-25T04:08:25;6.30;;;3.88;;
23080;SDS011;11708;50.570;8.532;2023-04-25T04:10:51;8.00;;;3.88;;
23080;SDS011;11708;50.570;8.532;2023-04-25T04:13:16;7.35;;;4.20;;
23080;SDS011;11708;50.570;8.532;2023-04-25T04:15:42;6.60;;;4.57;;
23080;SDS011;11708;50.570;8.532;2023-04-25T04:18:07;7.03;;;3.58;;
23080;SDS011;11708;50.570;8.532;2023-04-25T04:20:33;5.43;;;3.22;;
23080;SDS011;11708;50.570;8.532;2023-04-25T04:22:58;6.18;;;3.83;;
23080;SDS011;11708;50.570;8.532;2023-04-25T04:25:24;5.65;;;3.22;;
23080;SDS011;11708;50.570;8.532;2023-04-25T04:27:51;7.60;;;3.47;;
23080;SDS011;11708;50.570;8.532;2023-04-25T04:30:19;7.97;;;3.75;;
23080;SDS011;11708;50.570;8.532;2023-04-25T04:32:54;11.02;;;4.13;;
23080;SDS011;11708;50.570;8.532;2023-04-25T04:35:20;7.90;;;3.80;;
23080;SDS011;11708;50.570;8.532;2023-04-25T04:37:46;7.20;;;3.95;;
23080;SDS011;11708;50.570;8.532;2023-04-25T04:40:13;10.90;;;4.07;;
23080;SDS011;11708;50.570;8.532;2023-04-25T04:42:40;7.15;;;4.00;;
23080;SDS011;11708;50.570;8.532;2023-04-25T04:45:06;7.22;;;4.00;;
23080;SDS011;11708;50.570;8.532;2023-04-25T04:47:33;7.32;;;3.50;;
23080;SDS011;11708;50.570;8.532;2023-04-25T04:49:59;7.35;;;4.35;;
23080;SDS011;11708;50.570;8.532;2023-04-25T04:52:24;8.15;;;4.30;;
23080;SDS011;11708;50.570;8.532;2023-04-25T04:54:50;10.52;;;4.25;;
23080;SDS011;11708;50.570;8.532;2023-04-25T04:57:15;9.90;;;5.38;;
23080;SDS011;11708;50.570;8.532;2023-04-25T04:59:41;9.48;;;4.20;;
23080;SDS011;11708;50.570;8.532;2023-04-25T05:02:07;7.53;;;4.32;;
23080;SDS011;11708;50.570;8.532;2023-04-25T05:04:32;7.28;;;4.68;;
23080;SDS011;11708;50.570;8.532;2023-04-25T05:06:59;9.65;;;4.13;;
23080;SDS011;11708;50.570;8.532;2023-04-25T05:09:26;6.95;;;4.07;;
23080;SDS011;11708;50.570;8.532;2023-04-25T05:11:52;7.40;;;4.03;;
23080;SDS011;11708;50.570;8.532;2023-04-25T05:14:17;9.48;;;4.40;;
23080;SDS011;11708;50.570;8.532;2023-04-25T05:16:43;8.80;;;3.80;;
23080;SDS011;11708;50.570;8.532;2023-04-25T05:19:11;9.48;;;4.20;;
23080;SDS011;11708;50.570;8.532;2023-04-25T05:21:37;7.60;;;4.03;;
23080;SDS011;11708;50.570;8.532;2023-04-25T05:24:02;14.23;;;5.05;;
23080;SDS011;11708;50.570;8.532;2023-04-25T05:26:28;8.02;;;4.43;;
23080;SDS011;11708;50.570;8.532;2023-04-25T05:28:57;10.35;;;4.15;;
23080;SDS011;11708;50.570;8.532;2023-04-25T05:31:24;8.13;;;3.97;;
23080;SDS011;11708;50.570;8.532;2023-04-25T05:33:50;6.88;;;4.53;;
23080;SDS011;11708;50.570;8.532;2023-04-25T05:36:18;10.48;;;4.80;;
23080;SDS011;11708;50.570;8.532;2023-04-25T05:38:43;7.53;;;4.07;;
23080;SDS011;11708;50.570;8.532;2023-04-25T05:41:09;9.55;;;4.28;;
23080;SDS011;11708;50.570;8.532;2023-04-25T05:43:35;6.65;;;3.85;;
23080;SDS011;11708;50.570;8.532;2023-04-25T05:46:00;8.50;;;4.45;;
23080;SDS011;11708;50.570;8.532;2023-04-25T05:48:26;14.23;;;4.38;;
23080;SDS011;11708;50.570;8.532;2023-04-25T05:50:51;8.55;;;4.07;;
23080;SDS011;11708;50.570;8.532;2023-04-25T05:53:17;7.93;;;4.45;;
23080;SDS011;11708;50.570;8.532;2023-04-25T05:55:43;8.60;;;4.13;;
23080;SDS011;11708;50.570;8.532;2023-04-25T05:58:09;7.35;;;4.13;;
23080;SDS011;11708;50.570;8.532;2023-04-25T06:00:35;8.65;;;4.03;;
23080;SDS011;11708;50.570;8.532;2023-04-25T06:03:00;9.20;;;3.97;;
23080;SDS011;11708;50.570;8.532;2023-04-25T06:05:26;9.43;;;4.65;;
23080;SDS011;11708;50.570;8.532;2023-04-25T06:07:52;9.45;;;4.60;;
23080;SDS011;11708;50.570;8.532;2023-04-25T06:10:17;7.15;;;4.10;;
23080;SDS011;11708;50.570;8.532;2023-04-25T06:12:43;12.32;;;4.07;;
23080;SDS011;11708;50.570;8.532;2023-04-25T06:15:09;9.23;;;4.18;;
23080;SDS011;11708;50.570;8.532;2023-04-25T06:17:35;11.10;;;4.45;;
23080;SDS011;11708;50.570;8.532;2023-04-25T06:20:00;7.65;;;4.40;;
23080;SDS011;11708;50.570;8.532;2023-04-25T06:22:27;9.05;;;4.60;;
23080;SDS011;11708;50.570;8.532;2023-04-25T06:24:52;11.10;;;5.30;;
23080;SDS011;11708;50.570;8.532;2023-04-25T06:27:18;9.63;;;5.18;;
23080;SDS011;11708;50.570;8.532;2023-04-25T06:29:43;10.02;;;4.55;;
23080;SDS011;11708;50.570;8.532;2023-04-25T06:32:09;9.55;;;4.85;;
23080;SDS011;11708;50.570;8.532;2023-04-25T06:34:34;10.20;;;4.75;;
23080;SDS011;11708;50.570;8.532;2023-04-25T06:37:00;11.15;;;5.40;;
23080;SDS011;11708;50.570;8.532;2023-04-25T06:39:25;8.77;;;5.10;;
23080;SDS011;11708;50.570;8.532;2023-04-25T06:41:51;21.45;;;9.30;;
23080;SDS011;11708;50.570;8.532;2023-04-25T06:44:17;8.60;;;5.05;;
23080;SDS011;11708;50.570;8.532;2023-04-25T06:46:42;10.63;;;5.38;;
23080;SDS011;11708;50.570;8.532;2023-04-25T06:49:08;12.38;;;5.70;;
23080;SDS011;11708;50.570;8.532;2023-04-25T06:51:33;9.23;;;5.53;;
23080;SDS011;11708;50.570;8.532;2023-04-25T06:53:59;12.30;;;5.32;;
23080;SDS011;11708;50.570;8.532;2023-04-25T06:56:25;10.73;;;5.10;;
23080;SDS011;11708;50.570;8.532;2023-04-25T06:58:50;13.88;;;5.65;;
23080;SDS011;11708;50.570;8.532;2023-04-25T07:01:16;11.95;;;5.32;;
23080;SDS011;11708;50.570;8.532;2023-04-25T07:03:41;8.98;;;5.22;;
23080;SDS011;11708;50.570;8.532;2023-04-25T07:06:07;11.90;;;5.43;;
23080;SDS011;11708;50.570;8.532;2023-04-25T07:08:33;10.93;;;5.47;;
23080;SDS011;11708;50.570;8.532;2023-04-25T07:10:58;8.48;;;4.90;;
23080;SDS011;11708;50.570;8.532;2023-04-25T07:13:24;10.48;;;5.60;;
23080;SDS011;11708;50.570;8.532;2023-04-25T07:15:49;7.28;;;4.88;;
23080;SDS011;11708;50.570;8.532;2023-04-25T07:18:15;11.13;;;5.55;;
23080;SDS011;11708;50.570;8.532;2023-04-25T07:20:41;8.05;;;5.22;;
23080;SDS011;11708;50.570;8.532;2023-04-25T07:23:06;8.40;;;5.50;;
23080;SDS011;11708;50.570;8.532;2023-04-25T07:25:32;6.90;;;4.88;;
23080;SDS011;11708;50.570;8.532;2023-04-25T07:27:57;7.93;;;4.88;;
23080;SDS011;11708;50.570;8.532;2023-04-25T07:30:23;10.48;;;5.65;;
23080;SDS011;11708;50.570;8.532;2023-04-25T07:32:49;11.10;;;5.68;;
23080;SDS011;11708;50.570;8.532;2023-04-25T07:35:15;11.80;;;5.28;;
23080;SDS011;11708;50.570;8.532;2023-04-25T07:37:43;8.85;;;5.05;;
23080;SDS011;11708;50.570;8.532;2023-04-25T07:40:09;8.25;;;5.32;;
23080;SDS011;11708;50.570;8.532;2023-04-25T07:42:34;10.38;;;4.35;;
23080;SDS011;11708;50.570;8.532;2023-04-25T07:45:00;10.07;;;5.03;;
23080;SDS011;11708;50.570;8.532;2023-04-25T07:47:27;7.53;;;4.63;;
23080;SDS011;11708;50.570;8.532;2023-04-25T07:49:53;9.02;;;5.18;;
23080;SDS011;11708;50.570;8.532;2023-04-25T07:52:19;8.57;;;5.70;;
23080;SDS011;11708;50.570;8.532;2023-04-25T07:54:46;11.75;;;5.45;;
23080;SDS011;11708;50.570;8.532;2023-04-25T07:57:12;8.65;;;5.55;;
23080;SDS011;11708;50.570;8.532;2023-04-25T07:59:38;15.43;;;8.90;;
23080;SDS011;11708;50.570;8.532;2023-04-25T08:02:04;9.23;;;5.20;;
23080;SDS011;11708;50.570;8.532;2023-04-25T08:04:30;13.02;;;5.50;;
23080;SDS011;11708;50.570;8.532;2023-04-25T08:06:56;11.35;;;5.63;;
23080;SDS011;11708;50.570;8.532;2023-04-25T08:09:21;8.13;;;4.78;;
23080;SDS011;11708;50.570;8.532;2023-04-25T08:11:47;8.13;;;5.15;;
23080;SDS011;11708;50.570;8.532;2023-04-25T08:14:13;9.35;;;5.03;;
23080;SDS011;11708;50.570;8.532;2023-04-25T08:16:39;11.05;;;5.28;;
23080;SDS011;11708;50.570;8.532;2023-04-25T08:19:05;9.55;;;5.35;;
23080;SDS011;11708;50.570;8.532;2023-04-25T08:21:31;7.35;;;4.90;;
23080;SDS011;11708;50.570;8.532;2023-04-25T08:23:57;9.43;;;5.47;;
23080;SDS011;11708;50.570;8.532;2023-04-25T08:26:23;8.75;;;5.00;;
23080;SDS011;11708;50.570;8.532;2023-04-25T08:28:49;9.70;;;4.60;;
23080;SDS011;11708;50.570;8.532;2023-04-25T08:31:15;9.60;;;4.55;;
23080;SDS011;11708;50.570;8.532;2023-04-25T08:33:41;11.27;;;5.15;;
23080;SDS011;11708;50.570;8.532;2023-04-25T08:36:07;12.10;;;5.25;;
23080;SDS011;11708;50.570;8.532;2023-04-25T08:38:33;10.60;;;5.00;;
23080;SDS011;11708;50.570;8.532;2023-04-25T08:40:58;7.47;;;5.07;;
23080;SDS011;11708;50.570;8.532;2023-04-25T08:43:26;7.43;;;4.63;;
23080;SDS011;11708;50.570;8.532;2023-04-25T08:45:56;9.38;;;4.68;;
23080;SDS011;11708;50.570;8.532;2023-04-25T08:48:26;7.93;;;5.05;;
23080;SDS011;11708;50.570;8.532;2023-04-25T08:50:53;10.00;;;4.80;;
23080;SDS011;11708;50.570;8.532;2023-04-25T08:53:28;12.38;;;4.63;;
23080;SDS011;11708;50.570;8.532;2023-04-25T08:55:57;7.38;;;3.75;;
23080;SDS011;11708;50.570;8.532;2023-04-25T08:58:25;9.05;;;3.50;;
23080;SDS011;11708;50.570;8.532;2023-04-25T09:00:53;10.07;;;3.60;;
23080;SDS011;11708;50.570;8.532;2023-04-25T09:03:18;8.68;;;3.38;;
23080;SDS011;11708;50.570;8.532;2023-04-25T09:05:44;5.65;;;3.25;;
23080;SDS011;11708;50.570;8.532;2023-04-25T09:08:10;6.90;;;3.08;;
23080;SDS011;11708;50.570;8.532;2023-04-25T09:10:36;5.32;;;3.67;;
23080;SDS011;11708;50.570;8.532;2023-04-25T09:13:14;5.47;;;3.80;;
23080;SDS011;11708;50.570;8.532;2023-04-25T09:15:54;4.43;;;3.17;;
23080;SDS011;11708;50.570;8.532;2023-04-25T09:18:24;5.88;;;3.47;;
23080;SDS011;11708;50.570;8.532;2023-04-25T09:20:54;4.43;;;2.78;;
23080;SDS011;11708;50.570;8.532;2023-04-25T09:23:43;4.57;;;2.95;;
23080;SDS011;11708;50.570;8.532;2023-04-25T09:26:10;4.68;;;2.53;;
23080;SDS011;11708;50.570;8.532;2023-04-25T09:28:43;5.15;;;2.67;;
23080;SDS011;11708;50.570;8.532;2023-04-25T09:31:09;7.43;;;3.25;;
23080;SDS011;11708;50.570;8.532;2023-04-25T09:33:40;5.95;;;2.50;;
23080;SDS011;11708;50.570;8.532;2023-04-25T09:36:06;6.22;;;2.50;;
23080;SDS011;11708;50.570;8.532;2023-04-25T09:38:45;5.20;;;2.90;;
23080;SDS011;11708;50.570;8.532;2023-04-25T09:41:11;5.88;;;2.60;;
23080;SDS011;11708;50.570;8.532;2023-04-25T09:43:37;7.93;;;2.55;;
23080;SDS011;11708;50.570;8.532;2023-04-25T09:46:10;10.23;;;2.83;;
23080;SDS011;11708;50.570;8.532;2023-04-25T09:48:36;6.43;;;2.20;;
23080;SDS011;11708;50.570;8.532;2023-04-25T09:53:39;4.00;;;2.28;;
23080;SDS011;11708;50.570;8.532;2023-04-25T09:56:09;7.22;;;2.38;;
23080;SDS011;11708;50.570;8.532;2023-04-25T09:58:37;6.50;;;2.55;;
23080;SDS011;11708;50.570;8.532;2023-04-25T10:01:06;4.97;;;2.00;;
23080;SDS011;11708;50.570;8.532;2023-04-25T10:03:33;6.00;;;2.40;;
23080;SDS011;11708;50.570;8.532;2023-04-25T10:06:00;10.60;;;5.00;;
23080;SDS011;11708;50.570;8.532;2023-04-25T10:08:31;7.38;;;3.22;;
23080;SDS011;11708;50.570;8.532;2023-04-25T10:11:02;7.07;;;2.30;;
23080;SDS011;11708;50.570;8.532;2023-04-25T10:13:32;9.40;;;2.40;;
23080;SDS011;11708;50.570;8.532;2023-04-25T10:15:59;5.82;;;2.38;;
23080;SDS011;11708;50.570;8.532;2023-04-25T10:18:26;7.50;;;2.20;;
23080;SDS011;11708;50.570;8.532;2023-04-25T10:20:56;4.15;;;1.98;;
23080;SDS011;11708;50.570;8.532;2023-04-25T10:23:23;5.20;;;2.53;;
23080;SDS011;11708;50.570;8.532;2023-04-25T10:25:50;8.85;;;2.80;;
23080;SDS011;11708;50.570;8.532;2023-04-25T10:28:17;7.35;;;2.70;;
23080;SDS011;11708;50.570;8.532;2023-04-25T10:33:33;5.15;;;2.47;;
23080;SDS011;11708;50.570;8.532;2023-04-25T10:38:36;5.18;;;2.38;;
23080;SDS011;11708;50.570;8.532;2023-04-25T10:41:06;9.65;;;2.88;;
23080;SDS011;11708;50.570;8.532;2023-04-25T10:43:36;7.32;;;2.75;;
23080;SDS011;11708;50.570;8.532;2023-04-25T10:48:54;7.25;;;3.00;;
23080;SDS011;11708;50.570;8.532;2023-04-25T10:54:07;3.25;;;2.28;;
23080;SDS011;11708;50.570;8.532;2023-04-25T10:56:37;5.15;;;2.45;;
23080;SDS011;11708;50.570;8.532;2023-04-25T11:01:35;7.82;;;3.88;;
23080;SDS011;11708;50.570;8.532;2023-04-25T11:04:03;6.95;;;2.75;;
23080;SDS011;11708;50.570;8.532;2023-04-25T11:06:37;6.03;;;2.45;;
23080;SDS011;11708;50.570;8.532;2023-04-25T11:09:18;10.48;;;3.05;;
23080;SDS011;11708;50.570;8.532;2023-04-25T11:11:52;6.25;;;2.65;;
23080;SDS011;11708;50.570;8.532;2023-04-25T11:14:23;16.58;;;7.10;;
23080;SDS011;11708;50.570;8.532;2023-04-25T11:16:53;6.95;;;2.70;;
23080;SDS011;11708;50.570;8.532;2023-04-25T11:19:20;5.97;;;2.90;;
23080;SDS011;11708;50.570;8.532;2023-04-25T11:21:48;8.88;;;3.17;;
23080;SDS011;11708;50.570;8.532;2023-04-25T11:24:13;7.38;;;2.83;;
23080;SDS011;11708;50.570;8.532;2023-04-25T11:26:43;4.03;;;2.60;;
23080;SDS011;11708;50.570;8.532;2023-04-25T11:29:12;6.80;;;3.13;;
23080;SDS011;11708;50.570;8.532;2023-04-25T11:31:38;7.75;;;3.08;;
23080;SDS011;11708;50.570;8.532;2023-04-25T11:34:03;6.03;;;2.75;;
23080;SDS011;11708;50.570;8.532;2023-04-25T11:36:29;8.57;;;3.25;;
23080;SDS011;11708;50.570;8.532;2023-04-25T11:38:56;6.18;;;3.00;;
23080;SDS011;11708;50.570;8.532;2023-04-25T11:41:22;7.00;;;3.08;;
23080;SDS011;11708;50.570;8.532;2023-04-25T11:43:49;5.38;;;3.20;;
23080;SDS011;11708;50.570;8.532;2023-04-25T11:46:16;7.18;;;3.45;;
23080;SDS011;11708;50.570;8.532;2023-04-25T11:48:44;4.07;;;2.95;;
23080;SDS011;11708;50.570;8.532;2023-04-25T11:51:10;7.13;;;3.25;;
23080;SDS011;11708;50.570;8.532;2023-04-25T11:53:36;7.60;;;3.28;;
23080;SDS011;11708;50.570;8.532;2023-04-25T11:56:09;6.47;;;2.72;;
23080;SDS011;11708;50.570;8.532;2023-04-25T11:58:53;9.82;;;3.17;;
23080;SDS011;11708;50.570;8.532;2023-04-25T12:01:29;3.88;;;3.20;;
23080;SDS011;11708;50.570;8.532;2023-04-25T12:04:09;5.82;;;2.72;;
23080;SDS011;11708;50.570;8.532;2023-04-25T12:06:37;5.20;;;3.05;;
23080;SDS011;11708;50.570;8.532;2023-04-25T12:09:06;14.05;;;3.60;;
23080;SDS011;11708;50.570;8.532;2023-04-25T12:14:08;7.72;;;3.30;;
23080;SDS011;11708;50.570;8.532;2023-04-25T12:16:46;5.93;;;3.30;;
23080;SDS011;11708;50.570;8.532;2023-04-25T12:19:14;5.13;;;3.13;;
23080;SDS011;11708;50.570;8.532;2023-04-25T12:21:40;8.00;;;3.10;;
23080;SDS011;11708;50.570;8.532;2023-04-25T12:24:09;6.30;;;3.15;;
23080;SDS011;11708;50.570;8.532;2023-04-25T12:26:50;5.35;;;2.92;;
23080;SDS011;11708;50.570;8.532;2023-04-25T12:29:23;9.60;;;3.10;;
23080;SDS011;11708;50.570;8.532;2023-04-25T12:31:50;6.22;;;2.78;;
23080;SDS011;11708;50.570;8.532;2023-04-25T12:34:17;5.10;;;2.85;;
23080;SDS011;11708;50.570;8.532;2023-04-25T12:36:43;8.15;;;2.63;;
23080;SDS011;11708;50.570;8.532;2023-04-25T12:39:14;3.58;;;2.55;;
23080;SDS011;11708;50.570;8.532;2023-04-25T12:41:44;5.82;;;2.42;;
23080;SDS011;11708;50.570;8.532;2023-04-25T12:44:10;5.13;;;2.17;;
23080;SDS011;11708;50.570;8.532;2023-04-25T12:46:37;4.05;;;2.00;;
23080;SDS011;11708;50.570;8.532;2023-04-25T12:49:03;5.82;;;2.30;;
23080;SDS011;11708;50.570;8.532;2023-04-25T12:51:29;5.50;;;2.20;;
23080;SDS011;11708;50.570;8.532;2023-04-25T12:53:55;6.90;;;2.08;;
23080;SDS011;11708;50.570;8.532;2023-04-25T12:56:21;4.38;;;2.40;;
23080;SDS011;11708;50.570;8.532;2023-04-25T12:58:46;4.93;;;2.08;;
23080;SDS011;11708;50.570;8.532;2023-04-25T13:01:13;4.20;;;1.70;;
23080;SDS011;11708;50.570;8.532;2023-04-25T13:03:40;4.03;;;2.03;;
23080;SDS011;11708;50.570;8.532;2023-04-25T13:06:07;4.50;;;2.35;;
23080;SDS011;11708;50.570;8.532;2023-04-25T13:08:33;5.72;;;2.30;;
23080;SDS011;11708;50.570;8.532;2023-04-25T13:10:59;5.63;;;2.03;;
23080;SDS011;11708;50.570;8.532;2023-04-25T13:13:25;6.88;;;2.45;;
23080;SDS011;11708;50.570;8.532;2023-04-25T13:15:52;6.13;;;2.22;;
23080;SDS011;11708;50.570;8.532;2023-04-25T13:18:18;6.68;;;2.92;;
23080;SDS011;11708;50.570;8.532;2023-04-25T13:20:44;5.18;;;1.92;;
23080;SDS011;11708;50.570;8.532;2023-04-25T13:23:11;6.75;;;2.33;;
23080;SDS011;11708;50.570;8.532;2023-04-25T13:25:36;6.88;;;2.30;;
23080;SDS011;11708;50.570;8.532;2023-04-25T13:28:02;7.55;;;2.13;;
23080;SDS011;11708;50.570;8.532;2023-04-25T13:30:29;7.20;;;2.10;;
23080;SDS011;11708;50.570;8.532;2023-04-25T13:32:55;4.38;;;2.20;;
23080;SDS011;11708;50.570;8.532;2023-04-25T13:35:22;5.72;;;2.35;;
23080;SDS011;11708;50.570;8.532;2023-04-25T13:37:47;7.13;;;2.08;;
23080;SDS011;11708;50.570;8.532;2023-04-25T13:40:13;5.20;;;2.47;;
23080;SDS011;11708;50.570;8.532;2023-04-25T13:42:38;6.10;;;2.00;;
23080;SDS011;11708;50.570;8.532;2023-04-25T13:45:06;6.18;;;2.42;;
23080;SDS011;11708;50.570;8.532;2023-04-25T13:47:32;4.55;;;2.10;;
23080;SDS011;11708;50.570;8.532;2023-04-25T13:49:58;4.35;;;2.15;;
23080;SDS011;11708;50.570;8.532;2023-04-25T13:52:24;5.10;;;2.00;;
23080;SDS011;11708;50.570;8.532;2023-04-25T13:54:50;4.97;;;2.22;;
23080;SDS011;11708;50.570;8.532;2023-04-25T13:57:16;8.38;;;2.45;;
23080;SDS011;11708;50.570;8.532;2023-04-25T13:59:42;3.72;;;1.98;;
23080;SDS011;11708;50.570;8.532;2023-04-25T14:02:08;7.00;;;2.78;;
23080;SDS011;11708;50.570;8.532;2023-04-25T14:04:34;6.80;;;2.28;;
23080;SDS011;11708;50.570;8.532;2023-04-25T14:06:59;6.32;;;2.47;;
23080;SDS011;11708;50.570;8.532;2023-04-25T14:09:27;6.28;;;2.05;;
23080;SDS011;11708;50.570;8.532;2023-04-25T14:11:52;5.30;;;2.15;;
23080;SDS011;11708;50.570;8.532;2023-04-25T14:14:19;6.10;;;2.45;;
23080;SDS011;11708;50.570;8.532;2023-04-25T14:16:46;6.97;;;2.40;;
23080;SDS011;11708;50.570;8.532;2023-04-25T14:19:15;4.13;;;1.85;;
23080;SDS011;11708;50.570;8.532;2023-04-25T14:21:41;3.30;;;2.20;;
23080;SDS011;11708;50.570;8.532;2023-04-25T14:24:08;4.47;;;2.22;;
23080;SDS011;11708;50.570;8.532;2023-04-25T14:26:33;4.13;;;1.77;;
23080;SDS011;11708;50.570;8.532;2023-04-25T14:29:00;4.25;;;2.30;;
23080;SDS011;11708;50.570;8.532;2023-04-25T14:31:28;2.63;;;1.88;;
23080;SDS011;11708;50.570;8.532;2023-04-25T14:33:53;6.10;;;2.00;;
23080;SDS011;11708;50.570;8.532;2023-04-25T14:36:19;7.45;;;2.08;;
23080;SDS011;11708;50.570;8.532;2023-04-25T14:38:45;2.13;;;1.50;;
23080;SDS011;11708;50.570;8.532;2023-04-25T14:41:11;3.90;;;1.90;;
23080;SDS011;11708;50.570;8.532;2023-04-25T14:43:37;4.78;;;1.70;;
23080;SDS011;11708;50.570;8.532;2023-04-25T14:46:04;4.10;;;1.70;;
23080;SDS011;11708;50.570;8.532;2023-04-25T14:48:31;5.28;;;1.70;;
23080;SDS011;11708;50.570;8.532;2023-04-25T14:50:57;8.35;;;2.40;;
23080;SDS011;11708;50.570;8.532;2023-04-25T14:53:23;3.78;;;2.22;;
23080;SDS011;11708;50.570;8.532;2023-04-25T14:55:48;2.47;;;1.60;;
23080;SDS011;11708;50.570;8.532;2023-04-25T14:58:14;4.70;;;1.77;;
23080;SDS011;11708;50.570;8.532;2023-04-25T15:00:40;3.58;;;1.77;;
23080;SDS011;11708;50.570;8.532;2023-04-25T15:03:06;3.95;;;2.00;;